createdAt,value
2023-01-17T00:00:53.747Z,53.17
2023-01-17T00:01:54.034Z,50.11
2023-01-17T00:02:54.373Z,55.75
2023-01-17T00:03:54.711Z,52.05
2023-01-17T00:04:54.963Z,68.48
2023-01-17T00:05:55.131Z,55.11
2023-01-17T00:06:55.452Z,52.21
2023-01-17T00:07:55.775Z,52.05
2023-01-17T00:08:56.060Z,48.34
2023-01-17T00:09:56.380Z,56.56
2023-01-17T00:10:56.739Z,55.59
2023-01-17T00:11:57.070Z,53.50
2023-01-17T00:12:57.786Z,49.47
2023-01-17T00:13:57.634Z,48.66
2023-01-17T00:14:58.023Z,51.72
2023-01-17T00:15:58.357Z,53.82
2023-01-17T00:16:58.663Z,50.92
2023-01-17T00:17:58.999Z,48.18
2023-01-17T00:18:59.294Z,58.17
2023-01-17T00:19:59.526Z,48.34
2023-01-17T00:20:59.852Z,47.86
2023-01-17T00:22:00.154Z,49.63
2023-01-17T00:23:00.481Z,71.54
2023-01-17T00:24:00.813Z,51.88
2023-01-17T00:25:01.029Z,51.08
2023-01-17T00:26:01.338Z,56.07
2023-01-17T00:27:01.632Z,53.17
2023-01-17T00:28:01.964Z,60.10
2023-01-17T00:29:02.296Z,54.62
2023-01-17T00:30:02.512Z,57.69
2023-01-17T00:31:03.837Z,59.30
2023-01-17T00:32:03.155Z,48.18
2023-01-17T00:33:03.366Z,48.02
2023-01-17T00:34:03.725Z,52.05
2023-01-17T00:35:03.903Z,50.27
2023-01-17T00:36:04.230Z,53.50
2023-01-17T00:37:04.651Z,53.01
2023-01-17T00:38:04.783Z,49.31
2023-01-17T00:39:05.129Z,54.46
2023-01-17T00:40:05.293Z,52.21
2023-01-17T00:41:05.615Z,52.53
2023-01-17T00:42:05.942Z,53.66
2023-01-17T00:43:06.332Z,54.14
2023-01-17T00:44:06.524Z,51.08
2023-01-17T00:45:06.912Z,54.46
2023-01-17T00:46:07.118Z,56.24
2023-01-17T00:47:07.383Z,78.15
2023-01-17T00:48:07.761Z,57.85
2023-01-17T00:49:08.102Z,54.14
2023-01-17T00:50:08.406Z,51.40
2023-01-17T00:51:08.680Z,50.92
2023-01-17T00:52:08.966Z,54.14
2023-01-17T00:53:09.293Z,58.81
2023-01-17T00:54:10.018Z,54.14
2023-01-17T00:55:09.862Z,54.95
2023-01-17T00:56:10.173Z,53.17
2023-01-17T00:57:10.503Z,53.17
2023-01-17T00:58:10.820Z,53.66
2023-01-17T00:59:11.148Z,54.62
2023-01-17T01:00:11.459Z,54.46
2023-01-17T01:01:11.925Z,55.75
2023-01-17T01:02:12.164Z,54.14
2023-01-17T01:03:12.312Z,58.97
2023-01-17T01:04:12.527Z,50.27
2023-01-17T01:05:12.914Z,48.98
2023-01-17T01:06:13.157Z,52.37
2023-01-17T01:07:13.529Z,49.63
2023-01-17T01:08:13.684Z,48.98
2023-01-17T01:09:14.002Z,46.89
2023-01-17T01:10:14.295Z,47.86
2023-01-17T01:11:14.612Z,49.15
2023-01-17T01:12:14.920Z,50.27
2023-01-17T01:13:15.252Z,51.08
2023-01-17T01:14:15.544Z,52.21
2023-01-17T01:15:15.791Z,56.07
2023-01-17T01:16:16.151Z,47.53
2023-01-17T01:17:16.312Z,49.31
2023-01-17T01:18:16.618Z,56.07
2023-01-17T01:19:17.147Z,54.95
2023-01-17T01:20:17.209Z,48.34
2023-01-17T01:21:17.754Z,51.72
2023-01-17T01:22:17.812Z,47.86
2023-01-17T01:23:18.176Z,54.14
2023-01-17T01:24:18.334Z,48.66
2023-01-17T01:25:18.994Z,48.82
2023-01-17T01:26:18.933Z,52.69
2023-01-17T01:27:19.268Z,54.62
2023-01-17T01:28:19.588Z,50.60
2023-01-17T01:29:19.809Z,49.47
2023-01-17T01:30:20.154Z,47.70
2023-01-17T01:31:20.439Z,49.63
2023-01-17T01:32:20.693Z,47.86
2023-01-17T01:33:21.313Z,49.95
2023-01-17T01:34:21.354Z,53.50
2023-01-17T01:35:21.712Z,48.50
2023-01-17T01:36:21.893Z,49.63
2023-01-17T01:37:22.178Z,47.86
2023-01-17T01:38:22.500Z,49.63
2023-01-17T01:39:22.869Z,48.50
2023-01-17T01:40:23.014Z,50.11
2023-01-17T01:41:23.335Z,48.98
2023-01-17T01:42:23.603Z,48.98
2023-01-17T01:43:23.958Z,55.11
2023-01-17T01:44:24.255Z,53.17
2023-01-17T01:45:24.561Z,49.31
2023-01-17T01:46:24.855Z,49.15
2023-01-17T01:47:25.182Z,48.66
2023-01-17T01:48:25.518Z,51.24
2023-01-17T01:49:25.766Z,49.95
2023-01-17T01:50:25.901Z,50.43
2023-01-17T01:51:26.229Z,52.05
2023-01-17T01:52:26.496Z,48.66
2023-01-17T01:53:26.813Z,49.63
2023-01-17T01:54:27.181Z,51.72
2023-01-17T01:55:27.465Z,54.14
2023-01-17T01:56:27.728Z,52.69
2023-01-17T01:57:28.121Z,76.86
2023-01-17T01:58:28.415Z,48.66
2023-01-17T01:59:28.709Z,49.79
2023-01-17T02:00:29.006Z,66.39
2023-01-17T02:01:29.393Z,50.11
2023-01-17T02:02:29.610Z,51.88
2023-01-17T02:03:30.006Z,47.21
2023-01-17T02:04:30.304Z,51.08
2023-01-17T02:05:30.484Z,46.73
2023-01-17T02:06:30.805Z,49.15
2023-01-17T02:07:31.117Z,48.34
2023-01-17T02:08:31.410Z,71.22
2023-01-17T02:09:31.735Z,52.21
2023-01-17T02:10:32.049Z,47.37
2023-01-17T02:11:32.382Z,48.02
2023-01-17T02:12:32.644Z,50.92
2023-01-17T02:13:32.934Z,47.21
2023-01-17T02:14:33.263Z,46.89
2023-01-17T02:15:33.589Z,49.95
2023-01-17T02:16:33.909Z,52.21
2023-01-17T02:17:34.275Z,46.73
2023-01-17T02:18:34.548Z,48.34
2023-01-17T02:19:34.755Z,48.50
2023-01-17T02:20:35.067Z,46.73
2023-01-17T02:21:35.362Z,57.36
2023-01-17T02:22:35.675Z,52.21
2023-01-17T02:23:35.988Z,51.08
2023-01-17T02:24:36.368Z,60.26
2023-01-17T02:25:36.584Z,51.08
2023-01-17T02:26:36.792Z,50.60
2023-01-17T02:27:37.099Z,49.47
2023-01-17T02:28:37.406Z,51.72
2023-01-17T02:29:37.726Z,52.69
2023-01-17T02:30:38.035Z,61.39
2023-01-17T02:31:38.352Z,52.37
2023-01-17T02:32:38.635Z,49.95
2023-01-17T02:33:39.001Z,48.82
2023-01-17T02:34:39.259Z,56.07
2023-01-17T02:35:39.441Z,69.13
2023-01-17T02:36:39.709Z,71.70
2023-01-17T02:37:39.994Z,53.33
2023-01-17T02:38:40.283Z,56.24
2023-01-17T02:39:40.696Z,49.95
2023-01-17T02:40:40.968Z,48.18
2023-01-17T02:41:41.131Z,47.37
2023-01-17T02:42:41.430Z,52.53
2023-01-17T02:43:41.740Z,53.01
2023-01-17T02:44:42.046Z,49.95
2023-01-17T02:45:42.417Z,51.24
2023-01-17T02:46:42.559Z,49.31
2023-01-17T02:47:42.935Z,47.70
2023-01-17T02:48:43.208Z,48.34
2023-01-17T02:49:43.528Z,49.47
2023-01-17T02:50:43.830Z,50.76
2023-01-17T02:51:44.106Z,50.11
2023-01-17T02:52:44.401Z,49.95
2023-01-17T02:53:44.783Z,49.15
2023-01-17T02:54:45.124Z,49.15
2023-01-17T02:55:45.297Z,48.82
2023-01-17T02:56:45.582Z,48.34
2023-01-17T02:57:45.862Z,49.63
2023-01-17T02:58:46.175Z,47.05
2023-01-17T02:59:46.570Z,47.86
2023-01-17T03:00:46.885Z,46.89
2023-01-17T03:01:47.204Z,47.53
2023-01-17T03:02:47.448Z,47.70
2023-01-17T03:03:47.600Z,50.27
2023-01-17T03:04:47.973Z,48.02
2023-01-17T03:05:48.152Z,50.27
2023-01-17T03:06:48.453Z,74.77
2023-01-17T03:07:48.733Z,59.94
2023-01-17T03:08:49.267Z,52.53
2023-01-17T03:09:49.434Z,48.98
2023-01-17T03:10:49.691Z,64.78
2023-01-17T03:11:50.235Z,48.82
2023-01-17T03:12:50.382Z,62.68
2023-01-17T03:13:50.704Z,48.02
2023-01-17T03:14:51.031Z,49.63
2023-01-17T03:15:51.340Z,47.53
2023-01-17T03:16:51.677Z,47.70
2023-01-17T03:17:52.119Z,49.79
2023-01-17T03:18:52.272Z,63.97
2023-01-17T03:19:52.542Z,46.73
2023-01-17T03:20:52.841Z,47.37
2023-01-17T03:21:53.182Z,49.95
2023-01-17T03:22:53.359Z,53.82
2023-01-17T03:23:53.672Z,49.63
2023-01-17T03:24:54.040Z,48.98
2023-01-17T03:25:54.186Z,50.76
2023-01-17T03:26:54.564Z,51.08
2023-01-17T03:27:54.833Z,48.34
2023-01-17T03:28:54.967Z,48.66
2023-01-17T03:29:55.443Z,51.24
2023-01-17T03:30:55.706Z,49.47
2023-01-17T03:31:55.855Z,48.02
2023-01-17T03:32:56.132Z,48.34
2023-01-17T03:33:56.567Z,54.30
2023-01-17T03:34:56.752Z,49.47
2023-01-17T03:35:57.070Z,51.40
2023-01-17T03:36:57.433Z,55.59
2023-01-17T03:37:57.713Z,51.24
2023-01-17T03:38:58.056Z,50.43
2023-01-17T03:39:58.377Z,50.43
2023-01-17T03:40:58.680Z,48.98
2023-01-17T03:41:58.997Z,46.73
2023-01-17T03:42:59.322Z,48.98
2023-01-17T03:43:59.714Z,59.46
2023-01-17T03:44:59.893Z,58.17
2023-01-17T03:46:00.235Z,58.49
2023-01-17T03:47:00.470Z,57.69
2023-01-17T03:48:00.767Z,61.55
2023-01-17T03:49:01.066Z,64.29
2023-01-17T03:50:01.379Z,61.23
2023-01-17T03:51:01.661Z,60.75
2023-01-17T03:52:01.958Z,67.35
2023-01-17T03:53:02.248Z,61.23
2023-01-17T03:54:02.547Z,63.49
2023-01-17T03:55:02.825Z,65.42
2023-01-17T03:56:03.190Z,66.39
2023-01-17T03:57:03.424Z,60.26
2023-01-17T03:58:03.821Z,56.24
2023-01-17T03:59:04.024Z,76.70
2023-01-17T04:00:04.304Z,61.87
2023-01-17T04:01:04.741Z,59.62
2023-01-17T04:02:05.042Z,60.26
2023-01-17T04:03:05.268Z,60.10
2023-01-17T04:04:05.571Z,50.27
2023-01-17T04:05:05.941Z,54.30
2023-01-17T04:06:06.108Z,60.42
2023-01-17T04:07:06.348Z,54.62
2023-01-17T04:08:06.659Z,60.75
2023-01-17T04:09:07.080Z,57.20
2023-01-17T04:10:07.240Z,53.82
2023-01-17T04:11:07.559Z,56.56
2023-01-17T04:12:07.864Z,53.98
2023-01-17T04:13:08.123Z,50.60
2023-01-17T04:14:08.496Z,52.69
2023-01-17T04:15:08.764Z,63.16
2023-01-17T04:16:09.096Z,61.39
2023-01-17T04:17:09.355Z,49.47
2023-01-17T04:18:09.901Z,48.66
2023-01-17T04:19:09.915Z,52.69
2023-01-17T04:20:10.225Z,54.95
2023-01-17T04:21:10.542Z,54.95
2023-01-17T04:22:10.883Z,56.72
2023-01-17T04:23:11.034Z,57.69
2023-01-17T04:24:11.346Z,53.17
2023-01-17T04:25:11.651Z,52.21
2023-01-17T04:26:11.971Z,72.67
2023-01-17T04:27:12.291Z,63.81
2023-01-17T04:28:12.619Z,60.42
2023-01-17T04:29:12.872Z,53.82
2023-01-17T04:30:13.536Z,50.27
2023-01-17T04:31:13.625Z,58.01
2023-01-17T04:32:13.834Z,52.53
2023-01-17T04:33:14.167Z,60.75
2023-01-17T04:34:14.472Z,65.42
2023-01-17T04:35:14.776Z,54.95
2023-01-17T04:36:15.037Z,69.61
2023-01-17T04:37:15.313Z,60.75
2023-01-17T04:38:15.699Z,54.46
2023-01-17T04:39:15.989Z,55.11
2023-01-17T04:40:16.283Z,55.75
2023-01-17T04:41:16.588Z,67.03
2023-01-17T04:42:16.890Z,59.94
2023-01-17T04:43:17.150Z,56.88
2023-01-17T04:44:17.424Z,70.09
2023-01-17T04:45:17.729Z,57.85
2023-01-17T04:46:18.086Z,61.39
2023-01-17T04:47:18.302Z,58.01
2023-01-17T04:48:18.624Z,60.91
2023-01-17T04:49:18.998Z,55.11
2023-01-17T04:50:19.183Z,53.82
2023-01-17T04:51:19.456Z,56.88
2023-01-17T04:52:19.757Z,56.72
2023-01-17T04:53:20.023Z,61.87
2023-01-17T04:54:20.381Z,55.75
2023-01-17T04:55:20.705Z,50.92
2023-01-17T04:56:20.954Z,55.27
2023-01-17T04:57:21.238Z,61.39
2023-01-17T04:58:21.602Z,62.04
2023-01-17T04:59:21.900Z,57.52
2023-01-17T05:00:24.080Z,62.04
2023-01-17T05:01:22.520Z,52.69
2023-01-17T05:02:22.818Z,58.01
2023-01-17T05:03:23.074Z,64.78
2023-01-17T05:04:23.355Z,58.01
2023-01-17T05:05:23.732Z,58.81
2023-01-17T05:06:23.873Z,59.78
2023-01-17T05:07:24.108Z,53.17
2023-01-17T05:08:24.492Z,59.78
2023-01-17T05:09:24.669Z,55.11
2023-01-17T05:10:24.988Z,68.64
2023-01-17T05:11:25.240Z,75.09
2023-01-17T05:12:25.517Z,54.95
2023-01-17T05:13:25.890Z,56.40
2023-01-17T05:14:26.071Z,56.72
2023-01-17T05:15:26.386Z,63.65
2023-01-17T05:16:26.666Z,58.17
2023-01-17T05:17:26.983Z,63.81
2023-01-17T05:18:27.308Z,65.26
2023-01-17T05:19:27.620Z,57.69
2023-01-17T05:20:27.896Z,56.07
2023-01-17T05:21:28.162Z,63.97
2023-01-17T05:22:28.929Z,57.20
2023-01-17T05:23:28.799Z,62.84
2023-01-17T05:24:29.115Z,79.12
2023-01-17T05:25:29.486Z,59.46
2023-01-17T05:26:30.183Z,55.43
2023-01-17T05:27:29.947Z,62.36
2023-01-17T05:28:30.303Z,62.04
2023-01-17T05:29:30.731Z,74.77
2023-01-17T05:30:30.830Z,59.94
2023-01-17T05:31:31.220Z,54.79
2023-01-17T05:32:31.341Z,73.64
2023-01-17T05:33:31.589Z,79.44
2023-01-17T05:34:32.313Z,64.78
2023-01-17T05:35:32.270Z,69.13
2023-01-17T05:36:32.675Z,59.30
2023-01-17T05:37:33.008Z,64.61
2023-01-17T05:38:33.257Z,73.96
2023-01-17T05:39:33.440Z,58.97
2023-01-17T05:40:33.680Z,62.36
2023-01-17T05:41:33.985Z,61.55
2023-01-17T05:42:34.328Z,59.78
2023-01-17T05:43:34.512Z,54.95
2023-01-17T05:44:34.891Z,60.10
2023-01-17T05:45:35.168Z,61.07
2023-01-17T05:46:35.552Z,58.81
2023-01-17T05:47:35.690Z,61.55
2023-01-17T05:48:36.111Z,57.04
2023-01-17T05:49:36.250Z,74.93
2023-01-17T05:50:36.630Z,64.78
2023-01-17T05:51:36.855Z,58.81
2023-01-17T05:52:37.296Z,60.75
2023-01-17T05:53:37.386Z,62.84
2023-01-17T05:54:37.715Z,59.62
2023-01-17T05:55:38.062Z,64.45
2023-01-17T05:56:38.516Z,61.07
2023-01-17T05:57:38.611Z,65.26
2023-01-17T05:58:38.938Z,61.71
2023-01-17T05:59:39.243Z,60.26
2023-01-17T06:00:39.632Z,70.42
2023-01-17T06:01:40.533Z,62.84
2023-01-17T06:02:40.259Z,69.61
2023-01-17T06:03:40.397Z,58.97
2023-01-17T06:04:40.796Z,59.78
2023-01-17T06:05:40.959Z,62.84
2023-01-17T06:06:53.099Z,57.69
2023-01-17T06:07:41.644Z,64.61
2023-01-17T06:08:41.945Z,71.06
2023-01-17T06:09:42.195Z,59.94
2023-01-17T06:10:42.479Z,58.01
2023-01-17T06:11:42.741Z,61.55
2023-01-17T06:12:43.105Z,58.17
2023-01-17T06:13:43.858Z,61.23
2023-01-17T06:14:43.577Z,76.86
2023-01-17T06:15:43.958Z,61.55
2023-01-17T06:16:44.283Z,68.64
2023-01-17T06:17:44.470Z,60.91
2023-01-17T06:18:44.723Z,63.49
2023-01-17T06:19:44.965Z,64.61
2023-01-17T06:20:45.189Z,60.75
2023-01-17T06:21:45.414Z,63.16
2023-01-17T06:22:45.991Z,68.00
2023-01-17T06:23:46.599Z,64.61
2023-01-17T06:24:47.987Z,64.78
2023-01-17T06:25:47.528Z,55.27
2023-01-17T06:26:47.026Z,62.36
2023-01-17T06:27:47.279Z,65.90
2023-01-17T06:28:47.612Z,61.07
2023-01-17T06:29:47.880Z,67.03
2023-01-17T06:30:48.258Z,78.47
2023-01-17T06:31:48.540Z,64.61
2023-01-17T06:32:48.912Z,68.96
2023-01-17T06:33:49.101Z,61.55
2023-01-17T06:34:49.397Z,63.16
2023-01-17T06:35:49.635Z,61.07
2023-01-17T06:36:50.065Z,76.54
2023-01-17T06:37:50.263Z,69.77
2023-01-17T06:38:50.955Z,72.19
2023-01-17T06:39:50.817Z,65.58
2023-01-17T06:40:51.122Z,70.09
2023-01-17T06:41:51.302Z,76.70
2023-01-17T06:42:51.615Z,74.44
2023-01-17T06:43:51.870Z,66.87
2023-01-17T06:44:52.308Z,60.10
2023-01-17T06:45:52.474Z,64.61
2023-01-17T06:46:52.827Z,65.58
2023-01-17T06:47:53.085Z,63.00
2023-01-17T06:48:53.225Z,60.59
2023-01-17T06:49:53.595Z,67.68
2023-01-17T06:50:53.851Z,62.68
2023-01-17T06:51:54.026Z,74.44
2023-01-17T06:52:54.521Z,64.29
2023-01-17T06:53:54.698Z,77.99
2023-01-17T06:54:55.180Z,67.35
2023-01-17T06:55:55.207Z,69.29
2023-01-17T06:56:55.650Z,61.39
2023-01-17T06:57:55.943Z,67.19
2023-01-17T06:58:56.119Z,61.07
2023-01-17T06:59:56.455Z,69.93
2023-01-17T07:00:56.819Z,60.59
2023-01-17T07:01:56.994Z,69.93
2023-01-17T07:02:57.290Z,61.23
2023-01-17T07:03:57.515Z,72.99
2023-01-17T07:04:57.938Z,67.03
2023-01-17T07:05:58.089Z,63.81
2023-01-17T07:06:58.364Z,61.07
2023-01-17T07:07:58.658Z,70.09
2023-01-17T07:08:58.891Z,60.42
2023-01-17T07:09:59.163Z,72.99
2023-01-17T07:10:59.384Z,60.42
2023-01-17T07:11:59.681Z,69.29
2023-01-17T07:12:59.929Z,63.65
2023-01-17T07:14:00.650Z,69.29
2023-01-17T07:15:00.496Z,70.58
2023-01-17T07:16:00.794Z,62.20
2023-01-17T07:17:01.065Z,60.91
2023-01-17T07:18:01.266Z,58.81
2023-01-17T07:19:01.623Z,65.10
2023-01-17T07:20:01.906Z,60.42
2023-01-17T07:21:02.157Z,70.42
2023-01-17T07:22:02.370Z,72.03
2023-01-17T07:23:02.624Z,59.78
2023-01-17T07:24:02.874Z,62.20
2023-01-17T07:25:03.187Z,69.13
2023-01-17T07:26:03.393Z,59.14
2023-01-17T07:27:04.734Z,62.68
2023-01-17T07:28:04.062Z,65.10
2023-01-17T07:29:04.215Z,57.69
2023-01-17T07:30:04.509Z,60.26
2023-01-17T07:31:04.789Z,65.26
2023-01-17T07:32:05.052Z,71.38
2023-01-17T07:33:05.276Z,64.45
2023-01-17T07:34:05.509Z,67.35
2023-01-17T07:35:05.812Z,65.58
2023-01-17T07:36:06.000Z,63.33
2023-01-17T07:37:06.333Z,65.10
2023-01-17T07:38:06.523Z,66.06
2023-01-17T07:39:06.815Z,69.29
2023-01-17T07:40:07.102Z,75.57
2023-01-17T07:41:08.109Z,80.89
2023-01-17T07:42:07.727Z,81.69
2023-01-17T07:43:07.947Z,71.38
2023-01-17T07:44:08.187Z,71.22
2023-01-17T07:45:08.525Z,72.51
2023-01-17T07:46:08.754Z,79.12
2023-01-17T07:47:08.999Z,68.96
2023-01-17T07:48:09.337Z,68.32
2023-01-17T07:49:09.571Z,67.35
2023-01-17T07:50:09.935Z,72.19
2023-01-17T07:51:10.289Z,66.06
2023-01-17T07:52:10.418Z,62.36
2023-01-17T07:53:10.665Z,73.64
2023-01-17T07:54:10.906Z,69.61
2023-01-17T07:55:11.189Z,72.99
2023-01-17T07:56:11.471Z,59.94
2023-01-17T07:57:11.809Z,71.54
2023-01-17T07:58:12.004Z,58.97
2023-01-17T07:59:12.546Z,61.87
2023-01-17T08:00:12.484Z,72.19
2023-01-17T08:01:12.907Z,75.41
2023-01-17T08:02:13.056Z,62.20
2023-01-17T08:03:13.316Z,65.74
2023-01-17T08:04:13.566Z,73.15
2023-01-17T08:05:13.879Z,69.13
2023-01-17T08:06:14.065Z,74.60
2023-01-17T08:07:14.425Z,60.91
2023-01-17T08:08:16.456Z,61.71
2023-01-17T08:09:14.933Z,58.81
2023-01-17T08:10:15.134Z,60.91
2023-01-17T08:11:15.536Z,63.33
2023-01-17T08:12:15.773Z,72.67
2023-01-17T08:13:16.061Z,60.42
2023-01-17T08:14:16.350Z,68.96
2023-01-17T08:15:16.673Z,56.88
2023-01-17T08:16:16.956Z,70.58
2023-01-17T08:17:17.474Z,63.65
2023-01-17T08:18:17.457Z,60.91
2023-01-17T08:19:18.048Z,58.17
2023-01-17T08:20:18.000Z,71.22
2023-01-17T08:21:18.296Z,76.70
2023-01-17T08:22:18.790Z,79.76
2023-01-17T08:23:18.939Z,66.39
2023-01-17T08:24:19.245Z,72.99
2023-01-17T08:25:19.474Z,64.78
2023-01-17T08:26:19.858Z,69.61
2023-01-17T08:27:20.056Z,75.25
2023-01-17T08:28:20.351Z,77.18
2023-01-17T08:29:20.665Z,78.63
2023-01-17T08:30:21.020Z,62.04
2023-01-17T08:31:21.271Z,69.29
2023-01-17T08:32:21.739Z,65.90
2023-01-17T08:33:21.849Z,81.21
2023-01-17T08:34:22.065Z,61.55
2023-01-17T08:35:22.379Z,67.68
2023-01-17T08:36:22.584Z,68.64
2023-01-17T08:37:22.893Z,61.87
2023-01-17T08:38:23.246Z,64.29
2023-01-17T08:39:23.332Z,71.54
2023-01-17T08:40:23.826Z,64.45
2023-01-17T08:41:23.990Z,74.12
2023-01-17T08:42:24.178Z,62.84
2023-01-17T08:43:25.390Z,64.94
2023-01-17T08:44:24.788Z,62.84
2023-01-17T08:45:25.185Z,60.75
2023-01-17T08:46:25.326Z,63.00
2023-01-17T08:47:25.633Z,72.19
2023-01-17T08:48:25.995Z,77.83
2023-01-17T08:49:26.244Z,59.94
2023-01-17T08:50:26.341Z,61.87
2023-01-17T08:51:26.617Z,65.90
2023-01-17T08:52:26.943Z,69.29
2023-01-17T08:53:27.260Z,73.80
2023-01-17T08:54:27.692Z,66.55
2023-01-17T08:55:27.769Z,64.29
2023-01-17T08:56:28.143Z,57.20
2023-01-17T08:57:28.606Z,59.30
2023-01-17T08:58:30.435Z,58.81
2023-01-17T08:59:28.837Z,78.31
2023-01-17T09:00:29.175Z,61.07
2023-01-17T09:01:29.495Z,60.59
2023-01-17T09:02:29.674Z,68.00
2023-01-17T09:03:29.928Z,63.16
2023-01-17T09:04:30.196Z,65.90
2023-01-17T09:05:34.568Z,66.71
2023-01-17T09:06:31.738Z,64.45
2023-01-17T09:07:31.035Z,63.00
2023-01-17T09:08:31.534Z,65.10
2023-01-17T09:09:31.640Z,67.19
2023-01-17T09:10:32.037Z,65.42
2023-01-17T09:11:32.172Z,69.13
2023-01-17T09:12:32.448Z,68.00
2023-01-17T09:13:32.839Z,69.93
2023-01-17T09:14:33.000Z,74.77
2023-01-17T09:15:33.242Z,73.32
2023-01-17T09:16:33.477Z,76.38
2023-01-17T09:17:33.731Z,74.60
2023-01-17T09:18:34.059Z,74.12
2023-01-17T09:19:34.271Z,75.25
2023-01-17T09:20:34.590Z,76.70
2023-01-17T09:21:35.296Z,76.22
2023-01-17T09:22:35.078Z,79.28
2023-01-17T09:23:35.719Z,70.25
2023-01-17T09:24:35.590Z,72.03
2023-01-17T09:25:35.915Z,77.02
2023-01-17T09:26:36.180Z,74.44
2023-01-17T09:27:36.513Z,76.05
2023-01-17T09:28:36.805Z,81.05
2023-01-17T09:29:37.015Z,72.67
2023-01-17T09:30:37.381Z,72.99
2023-01-17T09:31:37.722Z,76.22
2023-01-17T09:32:37.859Z,73.15
2023-01-17T09:33:38.183Z,83.95
2023-01-17T09:34:38.389Z,69.61
2023-01-17T09:35:38.787Z,72.19
2023-01-17T09:36:39.012Z,77.02
2023-01-17T09:37:39.301Z,74.28
2023-01-17T09:38:39.537Z,75.57
2023-01-17T09:39:40.067Z,73.48
2023-01-17T09:40:40.139Z,73.15
2023-01-17T09:41:40.450Z,76.05
2023-01-17T09:42:40.721Z,75.41
2023-01-17T09:43:41.118Z,71.87
2023-01-17T09:44:41.219Z,70.25
2023-01-17T09:45:41.575Z,75.89
2023-01-17T09:46:41.856Z,68.64
2023-01-17T09:47:42.100Z,71.70
2023-01-17T09:48:42.383Z,62.04
2023-01-17T09:49:42.703Z,73.15
2023-01-17T09:50:42.952Z,68.96
2023-01-17T09:51:43.230Z,63.00
2023-01-17T09:52:43.499Z,63.00
2023-01-17T09:53:44.761Z,72.67
2023-01-17T09:54:44.058Z,81.53
2023-01-17T09:55:44.591Z,74.12
2023-01-17T09:56:44.588Z,62.36
2023-01-17T09:57:44.960Z,77.34
2023-01-17T09:58:45.187Z,77.50
2023-01-17T09:59:45.882Z,68.32
2023-01-17T10:00:45.790Z,68.48
2023-01-17T10:01:46.234Z,71.38
2023-01-17T10:02:46.405Z,60.42
2023-01-17T10:03:46.668Z,60.42
2023-01-17T10:04:46.825Z,77.99
2023-01-17T10:05:47.067Z,64.45
2023-01-17T10:06:47.315Z,59.46
2023-01-17T10:07:47.634Z,59.94
2023-01-17T10:08:48.136Z,68.96
2023-01-17T10:09:48.241Z,64.29
2023-01-17T10:10:48.646Z,74.28
2023-01-17T10:11:48.757Z,57.04
2023-01-17T10:12:48.996Z,64.61
2023-01-17T10:13:49.339Z,68.32
2023-01-17T10:14:49.615Z,60.26
2023-01-17T10:15:49.857Z,65.90
2023-01-17T10:16:50.145Z,73.64
2023-01-17T10:17:50.437Z,58.01
2023-01-17T10:18:50.766Z,61.71
2023-01-17T10:19:51.184Z,67.51
2023-01-17T10:20:51.316Z,82.34
2023-01-17T10:21:51.514Z,61.07
2023-01-17T10:22:52.031Z,61.87
2023-01-17T10:23:52.102Z,63.16
2023-01-17T10:24:52.379Z,79.44
2023-01-17T10:25:52.636Z,61.71
2023-01-17T10:26:52.901Z,64.61
2023-01-17T10:27:53.205Z,61.23
2023-01-17T10:28:53.385Z,70.42
2023-01-17T10:29:53.790Z,60.26
2023-01-17T10:30:54.084Z,71.38
2023-01-17T10:31:54.447Z,63.16
2023-01-17T10:32:54.560Z,82.50
2023-01-17T10:33:54.859Z,63.97
2023-01-17T10:34:55.157Z,63.65
2023-01-17T10:35:55.375Z,67.84
2023-01-17T10:36:55.617Z,55.43
2023-01-17T10:37:55.894Z,61.87
2023-01-17T10:38:56.139Z,61.55
2023-01-17T10:39:56.492Z,73.48
2023-01-17T10:40:56.843Z,75.89
2023-01-17T10:41:57.053Z,65.26
2023-01-17T10:42:57.296Z,63.81
2023-01-17T10:43:57.592Z,80.89
2023-01-17T10:44:57.950Z,72.03
2023-01-17T10:45:58.183Z,66.55
2023-01-17T10:46:58.471Z,68.80
2023-01-17T10:47:58.677Z,63.97
2023-01-17T10:48:59.002Z,69.13
2023-01-17T10:49:59.315Z,62.20
2023-01-17T10:50:59.573Z,67.68
2023-01-17T10:51:59.858Z,62.36
2023-01-17T10:53:00.187Z,75.73
2023-01-17T10:54:01.884Z,64.45
2023-01-17T10:55:00.760Z,61.07
2023-01-17T10:56:01.070Z,59.94
2023-01-17T10:57:01.384Z,74.77
2023-01-17T10:58:01.710Z,73.32
2023-01-17T10:59:01.852Z,76.70
2023-01-17T11:00:02.153Z,70.25
2023-01-17T11:01:02.594Z,63.49
2023-01-17T11:02:02.845Z,69.29
2023-01-17T11:03:03.160Z,66.55
2023-01-17T11:04:03.375Z,70.74
2023-01-17T11:05:03.485Z,76.38
2023-01-17T11:06:03.784Z,61.55
2023-01-17T11:07:04.085Z,67.51
2023-01-17T11:08:04.452Z,78.79
2023-01-17T11:09:04.655Z,61.39
2023-01-17T11:10:05.120Z,74.28
2023-01-17T11:11:05.554Z,70.09
2023-01-17T11:12:05.575Z,66.06
2023-01-17T11:13:05.819Z,67.19
2023-01-17T11:14:06.136Z,65.26
2023-01-17T11:15:06.340Z,75.89
2023-01-17T11:16:06.661Z,68.80
2023-01-17T11:17:06.904Z,61.55
2023-01-17T11:18:07.249Z,67.35
2023-01-17T11:19:07.590Z,73.48
2023-01-17T11:20:07.722Z,65.10
2023-01-17T11:21:07.971Z,78.63
2023-01-17T11:22:08.279Z,70.09
2023-01-17T11:23:08.564Z,69.13
2023-01-17T11:24:08.814Z,63.97
2023-01-17T11:25:09.207Z,69.93
2023-01-17T11:26:09.336Z,62.36
2023-01-17T11:27:09.648Z,61.71
2023-01-17T11:28:10.929Z,67.35
2023-01-17T11:29:10.576Z,69.13
2023-01-17T11:30:10.477Z,68.48
2023-01-17T11:31:10.739Z,70.42
2023-01-17T11:32:11.009Z,67.84
2023-01-17T11:33:11.272Z,71.87
2023-01-17T11:34:11.565Z,72.35
2023-01-17T11:35:11.816Z,61.23
2023-01-17T11:36:12.123Z,63.33
2023-01-17T11:37:12.360Z,75.89
2023-01-17T11:38:12.784Z,71.22
2023-01-17T11:39:13.024Z,63.65
2023-01-17T11:40:13.428Z,62.52
2023-01-17T11:41:13.820Z,60.75
2023-01-17T11:42:13.886Z,64.45
2023-01-17T11:43:14.236Z,73.80
2023-01-17T11:44:14.467Z,64.61
2023-01-17T11:45:14.721Z,59.94
2023-01-17T11:46:15.091Z,64.78
2023-01-17T11:47:15.357Z,68.48
2023-01-17T11:48:15.691Z,67.84
2023-01-17T11:49:15.904Z,72.67
2023-01-17T11:50:16.236Z,66.87
2023-01-17T11:51:16.493Z,74.93
2023-01-17T11:52:16.747Z,67.03
2023-01-17T11:53:16.966Z,65.10
2023-01-17T11:54:17.277Z,60.59
2023-01-17T11:55:17.552Z,72.67
2023-01-17T11:56:17.799Z,66.23
2023-01-17T11:57:18.068Z,66.06
2023-01-17T11:58:18.315Z,65.42
2023-01-17T11:59:18.571Z,73.32
2023-01-17T12:00:18.943Z,72.03
2023-01-17T12:01:19.230Z,67.19
2023-01-17T12:02:19.479Z,68.64
2023-01-17T12:03:19.763Z,65.42
2023-01-17T12:04:20.051Z,64.78
2023-01-17T12:05:20.385Z,72.99
2023-01-17T12:06:20.602Z,67.19
2023-01-17T12:07:20.944Z,68.16
2023-01-17T12:08:21.258Z,66.71
2023-01-17T12:09:21.451Z,59.94
2023-01-17T12:10:21.744Z,68.00
2023-01-17T12:11:22.023Z,71.38
2023-01-17T12:12:22.354Z,70.09
2023-01-17T12:13:22.679Z,70.90
2023-01-17T12:14:22.903Z,72.19
2023-01-17T12:15:23.200Z,67.51
2023-01-17T12:16:23.480Z,80.24
2023-01-17T12:17:23.734Z,63.16
2023-01-17T12:18:24.106Z,62.04
2023-01-17T12:19:24.376Z,69.77
2023-01-17T12:20:24.630Z,77.02
2023-01-17T12:21:24.896Z,66.06
2023-01-17T12:22:25.195Z,59.62
2023-01-17T12:23:25.476Z,61.87
2023-01-17T12:24:25.774Z,74.60
2023-01-17T12:25:25.961Z,77.34
2023-01-17T12:26:26.211Z,66.39
2023-01-17T12:27:26.470Z,66.55
2023-01-17T12:28:26.790Z,77.02
2023-01-17T12:29:27.060Z,60.75
2023-01-17T12:30:27.390Z,66.87
2023-01-17T12:31:27.691Z,79.12
2023-01-17T12:32:27.931Z,60.75
2023-01-17T12:33:28.263Z,73.96
2023-01-17T12:34:28.557Z,68.96
2023-01-17T12:35:28.814Z,66.87
2023-01-17T12:36:29.055Z,56.24
2023-01-17T12:37:29.308Z,59.62
2023-01-17T12:38:32.930Z,67.84
2023-01-17T12:39:29.947Z,63.81
2023-01-17T12:40:30.250Z,70.58
2023-01-17T12:41:30.452Z,67.84
2023-01-17T12:42:30.824Z,71.06
2023-01-17T12:43:31.132Z,63.33
2023-01-17T12:44:31.467Z,60.26
2023-01-17T12:45:31.596Z,81.69
2023-01-17T12:46:31.934Z,73.15
2023-01-17T12:47:33.829Z,59.94
2023-01-17T12:48:32.451Z,81.37
2023-01-17T12:49:32.681Z,61.23
2023-01-17T12:50:32.957Z,64.13
2023-01-17T12:51:33.220Z,61.39
2023-01-17T12:52:33.514Z,75.57
2023-01-17T12:53:33.874Z,64.78
2023-01-17T12:54:34.295Z,75.41
2023-01-17T12:55:34.364Z,77.02
2023-01-17T12:56:34.625Z,66.23